King of Scandinavia — OVOL2 — position and weather

sailwx.info

Track history (hours):
 
Tides and Currents Weather Stations Pressure Air Temp Water Temp Dewpoint Dewpoint Depression Visibility Wind Speed Wind Dir Waves Ship Positions

King of Scandinavia

Ship's website: http://www.dfds.co.uk/DSW/EN/OnBoard/na/KING.htm

Last reported at 2016-Jul-30 17:30 UTC. Time now 2016-Jul-31 00:20 UTC.
Position N 52°46' E 003°57'.

Length 166 m; beam 27.6 m; draft 6.2 m.

Type: Ship. MMSI: 220449000.

Date/timePositionNaut miles runAvg speedWind from/ knotsBaromVisibWave heightAir tempDewpointWater temp
2016-Jul-30 17:30N 52°46' E 003°57'1415.0
2016-Jul-30 16:33N 52°37' E 004°15'1413.9
2016-Jul-30 15:33N 52°28' E 004°33'1 1.4
2016-Jul-30 14:31N 52°28' E 004°35'0 0.0
2016-Jul-30 13:31N 52°28' E 004°35'0 0.0
2016-Jul-30 12:31N 52°28' E 004°35'0 0.0
2016-Jul-30 11:31N 52°28' E 004°35'0 0.0
2016-Jul-30 10:31N 52°28' E 004°35'0 0.0
2016-Jul-30 09:31N 52°28' E 004°35'0 0.0
2016-Jul-30 08:31N 52°28' E 004°35'0 0.3
2016-Jul-30 07:33N 52°28' E 004°35'1312.8
2016-Jul-30 06:33N 52°35' E 004°17'17417.4
2016-Jul-29 20:33N 54°21' E 000°26'1817.7
2016-Jul-29 19:33N 54°30' E 000°00'1817.5
2016-Jul-29 18:33N 54°40' W 000°25'1917.6
2016-Jul-29 17:30N 54°50' W 000°52'1717.7
2016-Jul-29 16:33N 54°59' W 001°17'6 6.0
2016-Jul-29 15:33N 54°59' W 001°27'0 0.0
2016-Jul-29 14:33N 54°59' W 001°27'0 0.0
2016-Jul-29 13:33N 54°59' W 001°27'0 0.0
2016-Jul-29 12:33N 54°59' W 001°27'0 0.0
2016-Jul-29 11:30N 54°59' W 001°27'0 0.0
2016-Jul-29 10:33N 54°59' W 001°27'0 0.0
2016-Jul-29 09:33N 54°59' W 001°27'0 0.0
2016-Jul-29 08:27N 54°59' W 001°27'5 5.5
2016-Jul-29 07:34N 54°60' W 001°19'1818.0
2016-Jul-29 06:34N 54°50' W 000°52'3517.5
2016-Jul-29 04:33N 54°31' W 000°01'1615.7
2016-Jul-29 03:33N 54°22' E 000°21'16116.1
2016-Jul-28 17:33N 52°46' E 003°58'1515.5
2016-Jul-28 16:34N 52°36' E 004°17'1313.2
2016-Jul-28 15:33N 52°28' E 004°34'1 0.7
2016-Jul-28 14:33N 52°28' E 004°35'0 0.0
2016-Jul-28 13:33N 52°28' E 004°35'0 0.0
2016-Jul-28 12:30N 52°28' E 004°35'0 0.0
2016-Jul-28 11:33N 52°28' E 004°35'0 0.0
2016-Jul-28 10:33N 52°28' E 004°35'0 0.0
2016-Jul-28 09:33N 52°28' E 004°35'0 0.0
2016-Jul-28 08:33N 52°28' E 004°35'0 0.0
2016-Jul-28 07:33N 52°28' E 004°35'1212.4
2016-Jul-28 06:33N 52°35' E 004°18'3917.1
2016-Jul-28 04:17N 53°00' E 003°30'1115.7
2016-Jul-28 03:33N 53°08' E 003°15'1616.1
2016-Jul-28 02:34N 53°18' E 002°55'1716.5
2016-Jul-28 01:32N 53°29' E 002°34'1717.7
2016-Jul-28 00:33N 53°40' E 002°11'1918.7
2016-Jul-27 23:34N 53°51' E 001°45'3818.7
2016-Jul-27 21:32N 54°11' E 000°51'1818.6
2016-Jul-27 20:34N 54°21' E 000°25'1918.8
2016-Jul-27 19:34N 54°32' W 000°02'1717.1
2016-Jul-27 18:34N 54°41' W 000°27'1716.5
2016-Jul-27 17:33N 54°50' W 000°51'1616.2
2016-Jul-27 16:34N 54°58' W 001°15'7 7.0
2016-Jul-27 15:33N 54°59' W 001°27'0 0.0
2016-Jul-27 14:28N 54°59' W 001°27'0 0.0
2016-Jul-27 13:31N 54°59' W 001°27'0 0.0
2016-Jul-27 12:28N 54°59' W 001°27'0 0.0
2016-Jul-27 11:31N 54°59' W 001°27'0 0.0
2016-Jul-27 10:31N 54°59' W 001°27'0 0.0
2016-Jul-27 09:31N 54°59' W 001°27'0 0.0
2016-Jul-27 08:31N 54°59' W 001°27'4 4.4
2016-Jul-27 07:33N 55°00' W 001°20'1414.3
2016-Jul-27 06:33N 54°53' W 000°59'1414.2
2016-Jul-27 05:33N 54°45' W 000°38'1515.1
2016-Jul-27 04:33N 54°37' W 000°16'1616.2
2016-Jul-27 03:33N 54°28' E 000°08'17416.9
2016-Jul-26 17:13N 52°44' E 004°03'1116.7
2016-Jul-26 16:33N 52°36' E 004°16'1413.9
2016-Jul-26 15:33N 52°28' E 004°34'0 0.4
2016-Jul-26 14:31N 52°28' E 004°35'0 0.0
2016-Jul-26 13:31N 52°28' E 004°35'0 0.0
2016-Jul-26 12:31N 52°28' E 004°35'0 0.0
2016-Jul-26 11:31N 52°28' E 004°35'0 0.0
2016-Jul-26 10:31N 52°28' E 004°35'0 0.0
2016-Jul-26 09:28N 52°28' E 004°35'0 0.0
2016-Jul-26 08:31N 52°28' E 004°35'1 0.7
2016-Jul-26 07:33N 52°28' E 004°34'1716.5
2016-Jul-26 06:33N 52°38' E 004°13'1817.7
2016-Jul-26 05:33N 52°50' E 003°51'1817.7
2016-Jul-26 04:33N 53°01' E 003°28'12416.6
2016-Jul-25 21:05N 54°15' E 000°41'917.3
2016-Jul-25 20:33N 54°20' E 000°28'1817.5
2016-Jul-25 19:34N 54°30' E 000°02'1817.7
2016-Jul-25 18:34N 54°39' W 000°23'1717.3
2016-Jul-25 17:33N 54°48' W 000°49'1716.9
2016-Jul-25 16:33N 54°57' W 001°14'8 7.8
2016-Jul-25 15:34N 54°59' W 001°27'0 0.0
2016-Jul-25 14:33N 54°59' W 001°27'0 0.0
2016-Jul-25 13:33N 54°59' W 001°27'0 0.0
2016-Jul-25 12:33N 54°59' W 001°27'0 0.0
2016-Jul-25 11:33N 54°59' W 001°27'0 0.0
2016-Jul-25 10:30N 54°59' W 001°27'0 0.0
2016-Jul-25 09:33N 54°59' W 001°27'0 0.0
2016-Jul-25 08:33N 54°59' W 001°27'4 4.2
2016-Jul-25 07:33N 55°00' W 001°20'1413.8
2016-Jul-25 06:33N 54°53' W 000°59'1413.7
2016-Jul-25 05:33N 54°46' W 000°39'1514.3
2016-Jul-25 04:29N 54°37' W 000°17'1515.7
2016-Jul-25 03:33N 54°29' E 000°04'1716.6
2016-Jul-25 02:34N 54°20' E 000°27'14017.3
2016-Jul-24 18:27N 52°58' E 003°39'1516.7
2016-Jul-24 17:33N 52°47' E 003°56'1616.4
2016-Jul-24 16:34N 52°36' E 004°16'1414.2
2016-Jul-24 15:33N 52°28' E 004°35'0 0.1
2016-Jul-24 14:33N 52°28' E 004°35'0 0.0
2016-Jul-24 13:33N 52°28' E 004°35'0 0.0
2016-Jul-24 12:33N 52°28' E 004°35'0 0.0
2016-Jul-24 11:33N 52°28' E 004°35'0 0.0
2016-Jul-24 10:33N 52°28' E 004°35'0 0.0
2016-Jul-24 09:33N 52°28' E 004°35'0 0.0
2016-Jul-24 08:33N 52°28' E 004°35'8 8.5
2016-Jul-24 07:34N 52°32' E 004°23'1514.7
2016-Jul-24 06:33N 52°43' E 004°06'1515.0
2016-Jul-24 05:33N 52°52' E 003°47'1716.6
2016-Jul-24 04:33N 53°03' E 003°26'1717.2
2016-Jul-24 03:34N 53°13' E 003°03'1717.2
2016-Jul-24 02:34N 53°25' E 002°41'1817.5
2016-Jul-24 01:33N 53°36' E 002°19'1717.5
2016-Jul-24 00:34N 53°47' E 001°56'1818.0
2016-Jul-23 23:34N 53°57' E 001°30'1818.2
2016-Jul-23 22:33N 54°07' E 001°04'1818.4
2016-Jul-23 21:34N 54°16' E 000°38'1918.7
2016-Jul-23 20:34N 54°27' E 000°11'1919.0
2016-Jul-23 19:34N 54°37' W 000°17'1919.2
2016-Jul-23 18:34N 54°47' W 000°45'1919.0
2016-Jul-23 17:33N 54°57' W 001°13'8 7.5
2016-Jul-23 16:26N 54°59' W 001°27'0 0.0
2016-Jul-23 15:29N 54°59' W 001°27'0 0.0
2016-Jul-23 14:24N 54°59' W 001°27'3 4.0
2016-Jul-23 13:34N 55°00' W 001°21'4 3.5
2016-Jul-23 12:34N 54°57' W 001°20'0 0.0
2016-Jul-23 11:34N 54°57' W 001°20'5 4.9
2016-Jul-23 10:33N 55°00' W 001°27'1 0.6
2016-Jul-23 09:32N 54°59' W 001°27'0 0.0
2016-Jul-23 08:31N 54°59' W 001°27'0 0.0
2016-Jul-23 07:32N 54°59' W 001°27'8 8.7
2016-Jul-23 06:33N 54°57' W 001°13'3416.7
2016-Jul-23 04:30N 54°39' W 000°23'1415.2
2016-Jul-23 03:33N 54°31' W 000°02'1716.6
2016-Jul-23 02:33N 54°22' E 000°22'1919.1
2016-Jul-23 01:33N 54°12' E 000°50'2919.4
2016-Jul-23 00:03N 53°56' E 001°31'1017.0
2016-Jul-22 23:28N 53°51' E 001°46'1617.8
2016-Jul-22 22:33N 53°42' E 002°08'1916.8
2016-Jul-22 21:26N 53°29' E 002°33'6817.6
2016-Jul-22 17:33N 52°45' E 003°59'1616.4
2016-Jul-22 16:33N 52°35' E 004°20'1211.7
2016-Jul-22 15:33N 52°28' E 004°35'0 0.0
2016-Jul-22 14:32N 52°28' E 004°35'0 0.0
2016-Jul-22 13:32N 52°28' E 004°35'0 0.0
2016-Jul-22 12:32N 52°28' E 004°35'0 0.0
2016-Jul-22 11:32N 52°28' E 004°35'0 0.0
2016-Jul-22 10:32N 52°28' E 004°35'0 0.0
2016-Jul-22 09:32N 52°28' E 004°35'0 0.0
2016-Jul-22 08:32N 52°28' E 004°35'2 2.4
2016-Jul-22 07:34N 52°28' E 004°31'5418.0
2016-Jul-22 04:33N 53°04' E 003°24'1717.3
2016-Jul-22 03:33N 53°15' E 003°02'1717.0
2016-Jul-22 02:33N 53°25' E 002°40'1717.0
2016-Jul-22 01:33N 53°37' E 002°19'1716.9
2016-Jul-22 00:33N 53°48' E 001°57'4017.5
2016-Jul-21 22:16N 54°08' E 000°59'1317.9
2016-Jul-21 21:33N 54°15' E 000°40'1818.1
2016-Jul-21 20:33N 54°25' E 000°14'1818.3
2016-Jul-21 19:33N 54°35' W 000°12'2618.6
2016-Jul-21 18:11N 54°49' W 000°50'1218.7
2016-Jul-21 17:33N 54°55' W 001°07'1212.4
2016-Jul-21 16:33N 54°59' W 001°27'0 0.0
2016-Jul-21 15:32N 54°59' W 001°27'0 0.0
2016-Jul-21 14:32N 54°59' W 001°27'0 0.0
2016-Jul-21 13:32N 54°59' W 001°27'0 0.0
2016-Jul-21 12:32N 54°59' W 001°27'0 0.0
2016-Jul-21 11:31N 54°59' W 001°27'0 0.0
2016-Jul-21 10:31N 54°59' W 001°27'0 0.0
2016-Jul-21 09:33N 54°59' W 001°27'0 0.0
2016-Jul-21 08:31N 54°59' W 001°27'5 5.2
2016-Jul-21 07:33N 55°00' W 001°18'1615.9
2016-Jul-21 06:33N 54°52' W 000°55'1514.9
2016-Jul-21 05:33N 54°43' W 000°33'1414.2
2016-Jul-21 04:33N 54°36' W 000°13'1414.2
2016-Jul-21 03:33N 54°28' E 000°08'1515.0
2016-Jul-21 02:33N 54°20' E 000°30'15317.0
2016-Jul-20 17:33N 52°49' E 003°55'  
Track history (hours):
 
Tides and Currents Weather Stations Pressure Air Temp Water Temp Dewpoint Dewpoint Depression Visibility Wind Speed Wind Dir Waves Ship Positions

King of Scandinavia

Ship's website: http://www.dfds.co.uk/DSW/EN/OnBoard/na/KING.htm

Last reported at 2016-Jul-30 17:30 UTC. Time now 2016-Jul-31 00:20 UTC.
Position N 52°46' E 003°57'.

Length 166 m; beam 27.6 m; draft 6.2 m.

Type: Ship. MMSI: 220449000.

Date/timePositionNaut miles runAvg speedWind from/ knotsBaromVisibWave heightAir tempDewpointWater temp
2016-Jul-30 17:30N 52°46' E 003°57'1415.0
2016-Jul-30 16:33N 52°37' E 004°15'1413.9
2016-Jul-30 15:33N 52°28' E 004°33'1 1.4
2016-Jul-30 14:31N 52°28' E 004°35'0 0.0
2016-Jul-30 13:31N 52°28' E 004°35'0 0.0
2016-Jul-30 12:31N 52°28' E 004°35'0 0.0
2016-Jul-30 11:31N 52°28' E 004°35'0 0.0
2016-Jul-30 10:31N 52°28' E 004°35'0 0.0
2016-Jul-30 09:31N 52°28' E 004°35'0 0.0
2016-Jul-30 08:31N 52°28' E 004°35'0 0.3
2016-Jul-30 07:33N 52°28' E 004°35'1312.8
2016-Jul-30 06:33N 52°35' E 004°17'17417.4
2016-Jul-29 20:33N 54°21' E 000°26'1817.7
2016-Jul-29 19:33N 54°30' E 000°00'1817.5
2016-Jul-29 18:33N 54°40' W 000°25'1917.6
2016-Jul-29 17:30N 54°50' W 000°52'1717.7
2016-Jul-29 16:33N 54°59' W 001°17'6 6.0
2016-Jul-29 15:33N 54°59' W 001°27'0 0.0
2016-Jul-29 14:33N 54°59' W 001°27'0 0.0
2016-Jul-29 13:33N 54°59' W 001°27'0 0.0
2016-Jul-29 12:33N 54°59' W 001°27'0 0.0
2016-Jul-29 11:30N 54°59' W 001°27'0 0.0
2016-Jul-29 10:33N 54°59' W 001°27'0 0.0
2016-Jul-29 09:33N 54°59' W 001°27'0 0.0
2016-Jul-29 08:27N 54°59' W 001°27'5 5.5
2016-Jul-29 07:34N 54°60' W 001°19'1818.0
2016-Jul-29 06:34N 54°50' W 000°52'3517.5
2016-Jul-29 04:33N 54°31' W 000°01'1615.7
2016-Jul-29 03:33N 54°22' E 000°21'16116.1
2016-Jul-28 17:33N 52°46' E 003°58'1515.5
2016-Jul-28 16:34N 52°36' E 004°17'1313.2
2016-Jul-28 15:33N 52°28' E 004°34'1 0.7
2016-Jul-28 14:33N 52°28' E 004°35'0 0.0
2016-Jul-28 13:33N 52°28' E 004°35'0 0.0
2016-Jul-28 12:30N 52°28' E 004°35'0 0.0
2016-Jul-28 11:33N 52°28' E 004°35'0 0.0
2016-Jul-28 10:33N 52°28' E 004°35'0 0.0
2016-Jul-28 09:33N 52°28' E 004°35'0 0.0
2016-Jul-28 08:33N 52°28' E 004°35'0 0.0
2016-Jul-28 07:33N 52°28' E 004°35'1212.4
2016-Jul-28 06:33N 52°35' E 004°18'3917.1
2016-Jul-28 04:17N 53°00' E 003°30'1115.7
2016-Jul-28 03:33N 53°08' E 003°15'1616.1
2016-Jul-28 02:34N 53°18' E 002°55'1716.5
2016-Jul-28 01:32N 53°29' E 002°34'1717.7
2016-Jul-28 00:33N 53°40' E 002°11'1918.7
2016-Jul-27 23:34N 53°51' E 001°45'3818.7
2016-Jul-27 21:32N 54°11' E 000°51'1818.6
2016-Jul-27 20:34N 54°21' E 000°25'1918.8
2016-Jul-27 19:34N 54°32' W 000°02'1717.1
2016-Jul-27 18:34N 54°41' W 000°27'1716.5
2016-Jul-27 17:33N 54°50' W 000°51'1616.2
2016-Jul-27 16:34N 54°58' W 001°15'7 7.0
2016-Jul-27 15:33N 54°59' W 001°27'0 0.0
2016-Jul-27 14:28N 54°59' W 001°27'0 0.0
2016-Jul-27 13:31N 54°59' W 001°27'0 0.0
2016-Jul-27 12:28N 54°59' W 001°27'0 0.0
2016-Jul-27 11:31N 54°59' W 001°27'0 0.0
2016-Jul-27 10:31N 54°59' W 001°27'0 0.0
2016-Jul-27 09:31N 54°59' W 001°27'0 0.0
2016-Jul-27 08:31N 54°59' W 001°27'4 4.4
2016-Jul-27 07:33N 55°00' W 001°20'1414.3
2016-Jul-27 06:33N 54°53' W 000°59'1414.2
2016-Jul-27 05:33N 54°45' W 000°38'1515.1
2016-Jul-27 04:33N 54°37' W 000°16'1616.2
2016-Jul-27 03:33N 54°28' E 000°08'17416.9
2016-Jul-26 17:13N 52°44' E 004°03'1116.7
2016-Jul-26 16:33N 52°36' E 004°16'1413.9
2016-Jul-26 15:33N 52°28' E 004°34'0 0.4
2016-Jul-26 14:31N 52°28' E 004°35'0 0.0
2016-Jul-26 13:31N 52°28' E 004°35'0 0.0
2016-Jul-26 12:31N 52°28' E 004°35'0 0.0
2016-Jul-26 11:31N 52°28' E 004°35'0 0.0
2016-Jul-26 10:31N 52°28' E 004°35'0 0.0
2016-Jul-26 09:28N 52°28' E 004°35'0 0.0
2016-Jul-26 08:31N 52°28' E 004°35'1 0.7
2016-Jul-26 07:33N 52°28' E 004°34'1716.5
2016-Jul-26 06:33N 52°38' E 004°13'1817.7
2016-Jul-26 05:33N 52°50' E 003°51'1817.7
2016-Jul-26 04:33N 53°01' E 003°28'12416.6
2016-Jul-25 21:05N 54°15' E 000°41'917.3
2016-Jul-25 20:33N 54°20' E 000°28'1817.5
2016-Jul-25 19:34N 54°30' E 000°02'1817.7
2016-Jul-25 18:34N 54°39' W 000°23'1717.3
2016-Jul-25 17:33N 54°48' W 000°49'1716.9
2016-Jul-25 16:33N 54°57' W 001°14'8 7.8
2016-Jul-25 15:34N 54°59' W 001°27'0 0.0
2016-Jul-25 14:33N 54°59' W 001°27'0 0.0
2016-Jul-25 13:33N 54°59' W 001°27'0 0.0
2016-Jul-25 12:33N 54°59' W 001°27'0 0.0
2016-Jul-25 11:33N 54°59' W 001°27'0 0.0
2016-Jul-25 10:30N 54°59' W 001°27'0 0.0
2016-Jul-25 09:33N 54°59' W 001°27'0 0.0
2016-Jul-25 08:33N 54°59' W 001°27'4 4.2
2016-Jul-25 07:33N 55°00' W 001°20'1413.8
2016-Jul-25 06:33N 54°53' W 000°59'1413.7
2016-Jul-25 05:33N 54°46' W 000°39'1514.3
2016-Jul-25 04:29N 54°37' W 000°17'1515.7
2016-Jul-25 03:33N 54°29' E 000°04'1716.6
2016-Jul-25 02:34N 54°20' E 000°27'14017.3
2016-Jul-24 18:27N 52°58' E 003°39'1516.7
2016-Jul-24 17:33N 52°47' E 003°56'1616.4
2016-Jul-24 16:34N 52°36' E 004°16'1414.2
2016-Jul-24 15:33N 52°28' E 004°35'0 0.1
2016-Jul-24 14:33N 52°28' E 004°35'0 0.0
2016-Jul-24 13:33N 52°28' E 004°35'0 0.0
2016-Jul-24 12:33N 52°28' E 004°35'0 0.0
2016-Jul-24 11:33N 52°28' E 004°35'0 0.0
2016-Jul-24 10:33N 52°28' E 004°35'0 0.0
2016-Jul-24 09:33N 52°28' E 004°35'0 0.0
2016-Jul-24 08:33N 52°28' E 004°35'8 8.5
2016-Jul-24 07:34N 52°32' E 004°23'1514.7
2016-Jul-24 06:33N 52°43' E 004°06'1515.0
2016-Jul-24 05:33N 52°52' E 003°47'1716.6
2016-Jul-24 04:33N 53°03' E 003°26'1717.2
2016-Jul-24 03:34N 53°13' E 003°03'1717.2
2016-Jul-24 02:34N 53°25' E 002°41'1817.5
2016-Jul-24 01:33N 53°36' E 002°19'1717.5
2016-Jul-24 00:34N 53°47' E 001°56'1818.0
2016-Jul-23 23:34N 53°57' E 001°30'1818.2
2016-Jul-23 22:33N 54°07' E 001°04'1818.4
2016-Jul-23 21:34N 54°16' E 000°38'1918.7
2016-Jul-23 20:34N 54°27' E 000°11'1919.0
2016-Jul-23 19:34N 54°37' W 000°17'1919.2
2016-Jul-23 18:34N 54°47' W 000°45'1919.0
2016-Jul-23 17:33N 54°57' W 001°13'8 7.5
2016-Jul-23 16:26N 54°59' W 001°27'0 0.0
2016-Jul-23 15:29N 54°59' W 001°27'0 0.0
2016-Jul-23 14:24N 54°59' W 001°27'3 4.0
2016-Jul-23 13:34N 55°00' W 001°21'4 3.5
2016-Jul-23 12:34N 54°57' W 001°20'0 0.0
2016-Jul-23 11:34N 54°57' W 001°20'5 4.9
2016-Jul-23 10:33N 55°00' W 001°27'1 0.6
2016-Jul-23 09:32N 54°59' W 001°27'0 0.0
2016-Jul-23 08:31N 54°59' W 001°27'0 0.0
2016-Jul-23 07:32N 54°59' W 001°27'8 8.7
2016-Jul-23 06:33N 54°57' W 001°13'3416.7
2016-Jul-23 04:30N 54°39' W 000°23'1415.2
2016-Jul-23 03:33N 54°31' W 000°02'1716.6
2016-Jul-23 02:33N 54°22' E 000°22'1919.1
2016-Jul-23 01:33N 54°12' E 000°50'2919.4
2016-Jul-23 00:03N 53°56' E 001°31'1017.0
2016-Jul-22 23:28N 53°51' E 001°46'1617.8
2016-Jul-22 22:33N 53°42' E 002°08'1916.8
2016-Jul-22 21:26N 53°29' E 002°33'6817.6
2016-Jul-22 17:33N 52°45' E 003°59'1616.4
2016-Jul-22 16:33N 52°35' E 004°20'1211.7
2016-Jul-22 15:33N 52°28' E 004°35'0 0.0
2016-Jul-22 14:32N 52°28' E 004°35'0 0.0
2016-Jul-22 13:32N 52°28' E 004°35'0 0.0
2016-Jul-22 12:32N 52°28' E 004°35'0 0.0
2016-Jul-22 11:32N 52°28' E 004°35'0 0.0
2016-Jul-22 10:32N 52°28' E 004°35'0 0.0
2016-Jul-22 09:32N 52°28' E 004°35'0 0.0
2016-Jul-22 08:32N 52°28' E 004°35'2 2.4
2016-Jul-22 07:34N 52°28' E 004°31'5418.0
2016-Jul-22 04:33N 53°04' E 003°24'1717.3
2016-Jul-22 03:33N 53°15' E 003°02'1717.0
2016-Jul-22 02:33N 53°25' E 002°40'1717.0
2016-Jul-22 01:33N 53°37' E 002°19'1716.9
2016-Jul-22 00:33N 53°48' E 001°57'4017.5
2016-Jul-21 22:16N 54°08' E 000°59'1317.9
2016-Jul-21 21:33N 54°15' E 000°40'1818.1
2016-Jul-21 20:33N 54°25' E 000°14'1818.3
2016-Jul-21 19:33N 54°35' W 000°12'2618.6
2016-Jul-21 18:11N 54°49' W 000°50'1218.7
2016-Jul-21 17:33N 54°55' W 001°07'1212.4
2016-Jul-21 16:33N 54°59' W 001°27'0 0.0
2016-Jul-21 15:32N 54°59' W 001°27'0 0.0
2016-Jul-21 14:32N 54°59' W 001°27'0 0.0
2016-Jul-21 13:32N 54°59' W 001°27'0 0.0
2016-Jul-21 12:32N 54°59' W 001°27'0 0.0
2016-Jul-21 11:31N 54°59' W 001°27'0 0.0
2016-Jul-21 10:31N 54°59' W 001°27'0 0.0
2016-Jul-21 09:33N 54°59' W 001°27'0 0.0
2016-Jul-21 08:31N 54°59' W 001°27'5 5.2
2016-Jul-21 07:33N 55°00' W 001°18'1615.9
2016-Jul-21 06:33N 54°52' W 000°55'1514.9
2016-Jul-21 05:33N 54°43' W 000°33'1414.2
2016-Jul-21 04:33N 54°36' W 000°13'1414.2
2016-Jul-21 03:33N 54°28' E 000°08'1515.0
2016-Jul-21 02:33N 54°20' E 000°30'15317.0
2016-Jul-20 17:33N 52°49' E 003°55'  

Dump ship's entire track history